Aérodrome :
LOGIN :

S'inscrire | Disclaimer

   EN    FR    IT 

 










Légende :    VFR   VFR Marginal   IFR   IFR Intensif   IFR Très Intensif
Visi : 
Plafond : 
>= 8 km
>= 3000ft
5 à 8 km
1000 à 3000 ft
1500m à 5 km
500 à 1000 ft
800 à 1500m
200 à 500 ft
< 800m
< 200 ft
Symboles :   Orages  Brouillard  Fortes neiges  Fortes précipitations  Vent > 20 kt
SIGMETs :   Divers  Orages  Givrage  Turbulence  Onde Orograph.  Cendres Volcan.







- Altitude de l'aérodrome : 935 ft


EBFS - Florennes

DERNIER METAR :
  • 240515Z 32005KT 4000 -RA FEW004 SCT007 BKN014 07/06 Q1006 GRN GRN TEMPO YLO

METARs EXPIRÉS :
  • 240455Z 28011KT 4000 RA FEW003 SCT005 BKN009 08/07 Q1006 YLO
  • 240425Z 21017KT 9999 FEW008 BKN010 BKN015 11/09 Q1005 GRN
  • 240355Z AUTO 20015KT 5000 -RA FEW006/// BKN009/// OVC013/// 11/09 Q1005 GRN
  • 240347Z AUTO 20012KT 9999 -RA FEW006/// BKN008/// OVC011/// 10/09 Q1005 GRN
  • 240325Z AUTO 18008KT 9000 RA FEW004/// BKN006/// BKN010/// 09/08 Q1005 YLO
  • 240307Z AUTO 18009KT 9999 FEW004/// SCT006/// BKN010/// 08/08 Q1006 YLO
  • 240255Z AUTO 18007KT 9999 -RA FEW007/// SCT011/// BKN016/// 08/07 Q1006 GRN
  • 240248Z AUTO 18006KT 3600 RA FEW003/// SCT016/// BKN020/// 08/07 Q1006 YLO
  • 240233Z AUTO 17007KT 2800 -RA FEW003/// SCT016/// BKN029/// 08/07 Q1006 YLO

TAF TAF EBFS
Valide du 23 à 19h jusqu'au 24 à 07h UTC


231545Z 2319/2407 26008KT 9999 FEW008 BKN020
TEMPO 2321/2401 SCT040
BECMG 2400/2402 29005KT SCT008 BKN015
TEMPO 2401/2407 4000 RADZ SCT005 BKN010
PROB30
TEMPO 2402/2407 2000 DZRA SCT002 BKN005
Pas de NOTAMs connus pour ce terrain.



MET'MAP, la Météo Aéronautique d'un coup d'oeil ! - Copyright ORBIFLY Décembre 2007 - Disclaimer

ORBIFLY MET'MAP TEAM :

Programmation & Développement : Alexandra Zaïnal
Conception & Développement : Baudouin d'Aumeries
Co-Programmation & Développement : Marc-Olivier Méhu
Soutien technique & logistique : Manuel Goepfert

Contact : metmap@orbifly.com




SOURCES & CREDITS :

   NOAA